Terminal Aerodrome Forecast
Issued by NWS

Current Version | Previous Version | Text Only | Print | Product List | Glossary Off
Versions: 1 2 3 4 5 6 7 8 9 10 11 12 13 14 15 16 17 18 19 20 21

000
FTUS41 KRLX 240300 AAA
TAFCKB
TAF AMD
KCKB 240307Z 2403/2424 33004KT P6SM SCT025
     FM240400 VRB03KT P6SM OVC015
     FM240600 VRB03KT P6SM OVC012
     FM240900 02005KT P6SM OVC010
     FM241300 34005KT P6SM BKN026
     FM241900 34006KT P6SM BKN035
     FM242100 34006KT P6SM SCT045=

USA.gov is the U.S. government's official web portal to all federal, state and local government web resources and services.